^^
Grace C. Lehan Memorial Weather Station Historical Data
Daily Summary for January 2, 2022 Units:  Both    English   Metric
Daily Weekly Monthly Yearly
  High: Low: Average:
Temperature: 45.7 °F /  7.6 °C 30.9 °F /  -0.6 °C 37.9 °F /  3.3 °C
Dew Point: 38.7 °F /  3.7 °C 24.3 °F /  -4.3 °C 33 °F /  0.6 °C
Humidity: 94% 74% 82%
Wind Speed: 1.8mph /  2.9km/h - 0.1mph /  0.2km/h
Wind Gust: 6mph /  9.7km/h - -
Wind- - East
Pressure: 30.51 in /  1033.1 hPa 30.26 in /  1024.6 hPa -
Precipitation: 0.09 in /  2.29 mm    
 
 
Tabular Data for January 2, 2022
Time Temperature Dew Point Pressure Wind Wind Speed Wind Gust Humidity Rainfall Rate (Hourly) solar
00:04 31.6 °F /  -0.2 °C 24.3 °F /  -4.3 °C 30.51in /  1033.1hPa Calm   2mph /  3.2km/h 74% 0.00in /  0mm 0 W/m2
00:09 31.6 °F /  -0.2 °C 24.3 °F /  -4.3 °C 30.50in /  1032.7hPa Calm     74% 0.00in /  0mm 0 W/m2
00:14 31.6 °F /  -0.2 °C 24.3 °F /  -4.3 °C 30.50in /  1032.7hPa Calm     74% 0.00in /  0mm 0 W/m2
00:19 31.6 °F /  -0.2 °C 24.3 °F /  -4.3 °C 30.50in /  1032.7hPa Calm     74% 0.00in /  0mm 0 W/m2
00:24 31.6 °F /  -0.2 °C 24.3 °F /  -4.3 °C 30.50in /  1032.7hPa Calm     74% 0.00in /  0mm 0 W/m2
00:29 31.6 °F /  -0.2 °C 24.6 °F /  -4.1 °C 30.50in /  1032.7hPa Calm     74.9% 0.00in /  0mm 0 W/m2
00:34 31.6 °F /  -0.2 °C 24.6 °F /  -4.1 °C 30.50in /  1032.7hPa ENE 0.1mph /  0.2km/h 2mph /  3.2km/h 75% 0.00in /  0mm 0 W/m2
00:39 31.7 °F /  -0.2 °C 24.7 °F /  -4.1 °C 30.50in /  1032.7hPa Calm   2mph /  3.2km/h 75% 0.00in /  0mm 0 W/m2
00:44 31.7 °F /  -0.2 °C 24.7 °F /  -4.1 °C 30.50in /  1032.7hPa Calm   2mph /  3.2km/h 75% 0.00in /  0mm 0 W/m2
00:49 31.7 °F /  -0.2 °C 24.7 °F /  -4.1 °C 30.49in /  1032.4hPa Calm   2mph /  3.2km/h 75.1% 0.00in /  0mm 0 W/m2
00:54 31.7 °F /  -0.2 °C 25 °F /  -3.9 °C 30.50in /  1032.7hPa Calm   2mph /  3.2km/h 76% 0.00in /  0mm 0 W/m2
00:59 31.7 °F /  -0.2 °C 25 °F /  -3.9 °C 30.50in /  1032.7hPa Calm   2mph /  3.2km/h 76% 0.00in /  0mm 0 W/m2
01:04 31.7 °F /  -0.2 °C 25 °F /  -3.9 °C 30.50in /  1032.7hPa Calm   2mph /  3.2km/h 76% 0.00in /  0mm 0 W/m2
01:09 31.7 °F /  -0.2 °C 25 °F /  -3.9 °C 30.51in /  1033.1hPa Calm     76% 0.00in /  0mm 0 W/m2
01:14 31.7 °F /  -0.2 °C 25.2 °F /  -3.8 °C 30.50in /  1032.7hPa Calm     76.6% 0.00in /  0mm 0 W/m2
01:19 31.7 °F /  -0.2 °C 25.4 °F /  -3.7 °C 30.50in /  1032.7hPa Calm     77% 0.00in /  0mm 0 W/m2
01:24 31.8 °F /  -0.1 °C 25.4 °F /  -3.7 °C 30.50in /  1032.7hPa Calm     77% 0.00in /  0mm 0 W/m2
01:29 31.8 °F /  -0.1 °C 25.4 °F /  -3.7 °C 30.50in /  1032.7hPa Calm     77% 0.00in /  0mm 0 W/m2
01:34 31.8 °F /  -0.1 °C 25.4 °F /  -3.7 °C 30.50in /  1032.7hPa Calm     77% 0.00in /  0mm 0 W/m2
01:39 31.9 °F /  -0.1 °C 25.5 °F /  -3.6 °C 30.50in /  1032.7hPa Calm     77% 0.00in /  0mm 0 W/m2
01:44 31.9 °F /  -0.1 °C 25.5 °F /  -3.6 °C 30.50in /  1032.7hPa Calm     77% 0.00in /  0mm 0 W/m2
01:49 31.9 °F /  -0.1 °C 25.7 °F /  -3.5 °C 30.50in /  1032.7hPa Calm     77.6% 0.00in /  0mm 0 W/m2
01:54 31.9 °F /  -0.1 °C 25.9 °F /  -3.4 °C 30.50in /  1032.7hPa Calm     78% 0.00in /  0mm 0 W/m2
01:59 32 °F /  0 °C 25.9 °F /  -3.4 °C 30.50in /  1032.7hPa Calm     78% 0.00in /  0mm 0 W/m2
02:04 32 °F /  0 °C 25.9 °F /  -3.4 °C 30.50in /  1032.7hPa Calm     78% 0.00in /  0mm 0 W/m2
02:09 32 °F /  0 °C 25.9 °F /  -3.4 °C 30.50in /  1032.7hPa Calm     78% 0.00in /  0mm 0 W/m2
02:14 32 °F /  0 °C 25.9 °F /  -3.4 °C 30.50in /  1032.7hPa Calm     78% 0.00in /  0mm 0 W/m2
02:19 32 °F /  0 °C 25.9 °F /  -3.4 °C 30.50in /  1032.7hPa Calm     78% 0.00in /  0mm 0 W/m2
02:24 32 °F /  0 °C 25.9 °F /  -3.4 °C 30.49in /  1032.4hPa Calm     78% 0.00in /  0mm 0 W/m2
02:29 32 °F /  0 °C 25.9 °F /  -3.4 °C 30.49in /  1032.4hPa Calm     78% 0.00in /  0mm 0 W/m2
02:34 32 °F /  0 °C 25.9 °F /  -3.4 °C 30.49in /  1032.4hPa Calm     78% 0.00in /  0mm 0 W/m2
02:39 31.9 °F /  -0.1 °C 25.8 °F /  -3.4 °C 30.49in /  1032.4hPa Calm     78% 0.00in /  0mm 0 W/m2
02:44 31.9 °F /  -0.1 °C 25.8 °F /  -3.4 °C 30.49in /  1032.4hPa Calm     78% 0.00in /  0mm 0 W/m2
02:49 31.7 °F /  -0.2 °C 25.7 °F /  -3.5 °C 30.48in /  1032.1hPa Calm     78% 0.00in /  0mm 0 W/m2
02:54 31.7 °F /  -0.2 °C 25.9 °F /  -3.4 °C 30.48in /  1032.1hPa Calm     79% 0.00in /  0mm 0 W/m2
02:59 31.6 °F /  -0.2 °C 25.8 °F /  -3.4 °C 30.48in /  1032.1hPa Calm     79% 0.00in /  0mm 0 W/m2
03:04 31.5 °F /  -0.3 °C 25.7 °F /  -3.5 °C 30.48in /  1032.1hPa Calm     79% 0.00in /  0mm 0 W/m2
03:09 31.4 °F /  -0.3 °C 25.7 °F /  -3.5 °C 30.48in /  1032.1hPa Calm     79% 0.00in /  0mm 0 W/m2
03:14 31.2 °F /  -0.4 °C 25.5 °F /  -3.6 °C 30.48in /  1032.1hPa Calm     79% 0.00in /  0mm 0 W/m2
03:19 31.1 °F /  -0.5 °C 25.5 °F /  -3.6 °C 30.47in /  1031.7hPa Calm     79.5% 0.00in /  0mm 0 W/m2
03:24 31 °F /  -0.6 °C 25.6 °F /  -3.6 °C 30.47in /  1031.7hPa Calm     80% 0.00in /  0mm 0 W/m2
03:29 31 °F /  -0.6 °C 25.7 °F /  -3.5 °C 30.47in /  1031.7hPa Calm     80.3% 0.00in /  0mm 0 W/m2
03:34 30.9 °F /  -0.6 °C 25.8 °F /  -3.4 °C 30.47in /  1031.7hPa Calm     81% 0.00in /  0mm 0 W/m2
03:39 30.9 °F /  -0.6 °C 25.8 °F /  -3.4 °C 30.48in /  1032.1hPa Calm     81% 0.00in /  0mm 0 W/m2
03:44 31 °F /  -0.6 °C 26.1 °F /  -3.3 °C 30.48in /  1032.1hPa Calm     81.8% 0.00in /  0mm 0 W/m2
03:49 31 °F /  -0.6 °C 26.2 °F /  -3.2 °C 30.48in /  1032.1hPa Calm     82% 0.00in /  0mm 0 W/m2
03:54 31 °F /  -0.6 °C 26.2 °F /  -3.2 °C 30.48in /  1032.1hPa Calm     82% 0.00in /  0mm 0 W/m2
03:59 31 °F /  -0.6 °C 26.2 °F /  -3.2 °C 30.48in /  1032.1hPa Calm     82% 0.00in /  0mm 0 W/m2
04:00 31 °F /  -0.6 °C 26.2 °F /  -3.2 °C 30.47in /  1031.7hPa Calm     82% 0.00in /  0mm 0 W/m2
04:09 31 °F /  -0.6 °C 26.2 °F /  -3.2 °C 30.47in /  1031.7hPa Calm     82% 0.00in /  0mm 0 W/m2
04:14 31 °F /  -0.6 °C 26.2 °F /  -3.2 °C 30.48in /  1032.1hPa Calm     82% 0.00in /  0mm 0 W/m2
04:19 31 °F /  -0.6 °C 26.4 °F /  -3.1 °C 30.48in /  1032.1hPa Calm     82.8% 0.00in /  0mm 0 W/m2
04:24 31 °F /  -0.6 °C 26.5 °F /  -3.1 °C 30.47in /  1031.7hPa Calm     83% 0.00in /  0mm 0 W/m2
04:29 31.1 °F /  -0.5 °C 26.5 °F /  -3.1 °C 30.47in /  1031.7hPa Calm     83% 0.00in /  0mm 0 W/m2
04:34 31.1 °F /  -0.5 °C 26.6 °F /  -3 °C 30.48in /  1032.1hPa Calm     83% 0.00in /  0mm 0 W/m2
04:39 31.1 °F /  -0.5 °C 26.6 °F /  -3 °C 30.47in /  1031.7hPa Calm     83% 0.00in /  0mm 0 W/m2
04:44 31.2 °F /  -0.4 °C 26.6 °F /  -3 °C 30.47in /  1031.7hPa Calm     83% 0.00in /  0mm 0 W/m2
04:49 31.2 °F /  -0.4 °C 26.7 °F /  -2.9 °C 30.47in /  1031.7hPa Calm     83% 0.00in /  0mm 0 W/m2
04:54 31.3 °F /  -0.4 °C 26.7 °F /  -2.9 °C 30.47in /  1031.7hPa Calm     83% 0.00in /  0mm 0 W/m2
04:59 31.3 °F /  -0.4 °C 26.8 °F /  -2.9 °C 30.47in /  1031.7hPa Calm     83.2% 0.00in /  0mm 0 W/m2
05:04 31.4 °F /  -0.3 °C 27.1 °F /  -2.7 °C 30.47in /  1031.7hPa Calm     84% 0.00in /  0mm 0 W/m2
05:09 31.4 °F /  -0.3 °C 27.1 °F /  -2.7 °C 30.46in /  1031.4hPa Calm     84% 0.00in /  0mm 0 W/m2
05:14 31.4 °F /  -0.3 °C 27.2 °F /  -2.7 °C 30.46in /  1031.4hPa Calm     84% 0.00in /  0mm 0 W/m2
05:19 31.5 °F /  -0.3 °C 27.2 °F /  -2.7 °C 30.46in /  1031.4hPa Calm     84% 0.00in /  0mm 0 W/m2
05:24 31.5 °F /  -0.3 °C 27.2 °F /  -2.7 °C 30.46in /  1031.4hPa Calm     84% 0.00in /  0mm 0 W/m2
05:29 31.5 °F /  -0.3 °C 27.2 °F /  -2.7 °C 30.46in /  1031.4hPa Calm     84% 0.00in /  0mm 0 W/m2
05:34 31.5 °F /  -0.3 °C 27.2 °F /  -2.7 °C 30.46in /  1031.4hPa Calm     84% 0.00in /  0mm 0 W/m2
05:39 31.5 °F /  -0.3 °C 27.3 °F /  -2.6 °C 30.46in /  1031.4hPa Calm     84% 0.00in /  0mm 0 W/m2
05:44 31.6 °F /  -0.2 °C 27.3 °F /  -2.6 °C 30.46in /  1031.4hPa Calm     84% 0.00in /  0mm 0 W/m2
05:49 31.6 °F /  -0.2 °C 27.3 °F /  -2.6 °C 30.47in /  1031.7hPa Calm     84% 0.00in /  0mm 0 W/m2
05:54 31.6 °F /  -0.2 °C 27.3 °F /  -2.6 °C 30.47in /  1031.7hPa Calm     84% 0.00in /  0mm 0 W/m2
05:59 31.6 °F /  -0.2 °C 27.3 °F /  -2.6 °C 30.47in /  1031.7hPa Calm     84% 0.00in /  0mm 0 W/m2
06:04 31.6 °F /  -0.2 °C 27.3 °F /  -2.6 °C 30.47in /  1031.7hPa Calm     84% 0.00in /  0mm 0 W/m2
06:09 31.5 °F /  -0.3 °C 27.3 °F /  -2.6 °C 30.46in /  1031.4hPa Calm     84% 0.00in /  0mm 0 W/m2
06:14 31.5 °F /  -0.3 °C 27.3 °F /  -2.6 °C 30.46in /  1031.4hPa Calm     84% 0.00in /  0mm 0 W/m2
06:19 31.5 °F /  -0.3 °C 27.3 °F /  -2.6 °C 30.46in /  1031.4hPa Calm     84% 0.00in /  0mm 0 W/m2
06:24 31.5 °F /  -0.3 °C 27.3 °F /  -2.6 °C 30.46in /  1031.4hPa Calm     84% 0.00in /  0mm 0 W/m2
06:29 31.5 °F /  -0.3 °C 27.3 °F /  -2.6 °C 30.46in /  1031.4hPa Calm     84% 0.00in /  0mm 0 W/m2
06:34 31.5 °F /  -0.3 °C 27.3 °F /  -2.6 °C 30.46in /  1031.4hPa Calm     84.3% 0.00in /  0mm 0 W/m2
06:39 31.5 °F /  -0.3 °C 27.2 °F /  -2.7 °C 30.47in /  1031.7hPa Calm     84% 0.00in /  0mm 0 W/m2
06:44 31.5 °F /  -0.3 °C 27.2 °F /  -2.7 °C 30.47in /  1031.7hPa Calm     84% 0.00in /  0mm 0 W/m2
06:49 31.4 °F /  -0.3 °C 27.2 °F /  -2.7 °C 30.47in /  1031.7hPa Calm     84% 0.00in /  0mm 0 W/m2
06:54 31.4 °F /  -0.3 °C 27.1 °F /  -2.7 °C 30.47in /  1031.7hPa Calm     84% 0.00in /  0mm 0 W/m2
06:59 31.4 °F /  -0.3 °C 27.1 °F /  -2.7 °C 30.47in /  1031.7hPa Calm     84% 0.00in /  0mm 0 W/m2
07:04 31.4 °F /  -0.3 °C 27.2 °F /  -2.7 °C 30.47in /  1031.7hPa Calm     84.4% 0.00in /  0mm 0 W/m2
07:09 31.4 °F /  -0.3 °C 27.4 °F /  -2.6 °C 30.47in /  1031.7hPa Calm     85% 0.00in /  0mm 5 W/m2
07:14 31.5 °F /  -0.3 °C 27.5 °F /  -2.5 °C 30.47in /  1031.7hPa Calm     85% 0.00in /  0mm 7 W/m2
07:19 31.5 °F /  -0.3 °C 27.5 °F /  -2.5 °C 30.47in /  1031.7hPa Calm     85% 0.00in /  0mm 7 W/m2
07:24 31.5 °F /  -0.3 °C 27.6 °F /  -2.4 °C 30.48in /  1032.1hPa Calm     85% 0.00in /  0mm 9 W/m2
07:29 31.6 °F /  -0.2 °C 27.6 °F /  -2.4 °C 30.48in /  1032.1hPa Calm     85% 0.00in /  0mm 11 W/m2
07:34 31.7 °F /  -0.2 °C 27.7 °F /  -2.4 °C 30.48in /  1032.1hPa Calm     85% 0.00in /  0mm 14 W/m2
07:39 31.8 °F /  -0.1 °C 27.8 °F /  -2.3 °C 30.47in /  1031.7hPa Calm     85% 0.00in /  0mm 14 W/m2
07:44 31.9 °F /  -0.1 °C 28 °F /  -2.2 °C 30.47in /  1031.7hPa Calm     85.4% 0.00in /  0mm 25 W/m2
07:49 32 °F /  0 °C 28 °F /  -2.2 °C 30.48in /  1032.1hPa Calm     85.1% 0.00in /  0mm 28 W/m2
07:54 32.1 °F /  0.1 °C 28.1 °F /  -2.2 °C 30.48in /  1032.1hPa Calm     85% 0.00in /  0mm 26 W/m2
07:59 32.2 °F /  0.1 °C 28.2 °F /  -2.1 °C 30.48in /  1032.1hPa Calm     85% 0.00in /  0mm 33 W/m2
08:00 32.2 °F /  0.1 °C 28.2 °F /  -2.1 °C 30.47in /  1031.7hPa Calm     85% 0.00in /  0mm 33 W/m2
08:09 32.4 °F /  0.2 °C 28.4 °F /  -2 °C 30.47in /  1031.7hPa Calm     85% 0.00in /  0mm 47 W/m2
08:14 32.5 °F /  0.3 °C 28.5 °F /  -1.9 °C 30.47in /  1031.7hPa Calm     85% 0.00in /  0mm 47 W/m2
08:19 32.6 °F /  0.3 °C 28.6 °F /  -1.9 °C 30.47in /  1031.7hPa Calm     85% 0.00in /  0mm 58 W/m2
08:24 32.8 °F /  0.4 °C 28.8 °F /  -1.8 °C 30.47in /  1031.7hPa Calm     85% 0.00in /  0mm 67 W/m2
08:29 33 °F /  0.6 °C 29 °F /  -1.7 °C 30.46in /  1031.4hPa Calm     85% 0.00in /  0mm 90 W/m2
08:34 33.2 °F /  0.7 °C 29 °F /  -1.7 °C 30.46in /  1031.4hPa Calm     84.3% 0.00in /  0mm 127 W/m2
08:39 33.5 °F /  0.8 °C 29.2 °F /  -1.6 °C 30.46in /  1031.4hPa Calm     84% 0.00in /  0mm 139 W/m2
08:44 33.8 °F /  1 °C 29.5 °F /  -1.4 °C 30.46in /  1031.4hPa Calm     84% 0.00in /  0mm 151 W/m2
08:49 34.1 °F /  1.2 °C 29.5 °F /  -1.4 °C 30.46in /  1031.4hPa Calm     83.3% 0.00in /  0mm 163 W/m2
08:54 34.3 °F /  1.3 °C 29.5 °F /  -1.4 °C 30.47in /  1031.7hPa Calm     82.4% 0.00in /  0mm 171 W/m2
08:59 34.6 °F /  1.4 °C 29.7 °F /  -1.3 °C 30.47in /  1031.7hPa Calm     82% 0.00in /  0mm 169 W/m2
09:04 35 °F /  1.7 °C 30 °F /  -1.1 °C 30.47in /  1031.7hPa Calm     82% 0.00in /  0mm 158 W/m2
09:09 35.2 °F /  1.8 °C 30.2 °F /  -1 °C 30.47in /  1031.7hPa ENE 0.3mph /  0.5km/h 3mph /  4.8km/h 81.7% 0.00in /  0mm 158 W/m2
09:14 35.4 °F /  1.9 °C 30.1 °F /  -1.1 °C 30.47in /  1031.7hPa Calm   3mph /  4.8km/h 81% 0.00in /  0mm 118 W/m2
09:19 35.5 °F /  1.9 °C 30.2 °F /  -1 °C 30.47in /  1031.7hPa Calm   3mph /  4.8km/h 81% 0.00in /  0mm 128 W/m2
09:24 35.5 °F /  1.9 °C 30.3 °F /  -0.9 °C 30.47in /  1031.7hPa Calm   3mph /  4.8km/h 81% 0.00in /  0mm 102 W/m2
09:29 35.6 °F /  2 °C 30.2 °F /  -1 °C 30.47in /  1031.7hPa Calm   3mph /  4.8km/h 80.6% 0.00in /  0mm 91 W/m2
09:34 35.6 °F /  2 °C 30.1 °F /  -1.1 °C 30.47in /  1031.7hPa Calm   3mph /  4.8km/h 80% 0.00in /  0mm 114 W/m2
09:39 35.6 °F /  2 °C 30.1 °F /  -1.1 °C 30.47in /  1031.7hPa Calm     80.2% 0.00in /  0mm 118 W/m2
09:44 35.7 °F /  2.1 °C 30.5 °F /  -0.8 °C 30.47in /  1031.7hPa Calm     81% 0.00in /  0mm 111 W/m2
09:49 35.7 °F /  2.1 °C 30.5 °F /  -0.8 °C 30.47in /  1031.7hPa Calm     81% 0.00in /  0mm 151 W/m2
09:54 35.9 °F /  2.2 °C 30.6 °F /  -0.8 °C 30.48in /  1032.1hPa Calm     81% 0.00in /  0mm 185 W/m2
09:59 36 °F /  2.2 °C 31 °F /  -0.6 °C 30.47in /  1031.7hPa Calm     81.7% 0.00in /  0mm 234 W/m2
10:04 36.2 °F /  2.3 °C 31.3 °F /  -0.4 °C 30.47in /  1031.7hPa Calm     82% 0.00in /  0mm 288 W/m2
10:09 36.6 °F /  2.6 °C 31.7 °F /  -0.2 °C 30.47in /  1031.7hPa Calm     82.3% 0.00in /  0mm 253 W/m2
10:14 36.9 °F /  2.7 °C 32.2 °F /  0.1 °C 30.47in /  1031.7hPa Calm     83% 0.01in /  0.25mm 244 W/m2
10:19 37.3 °F /  2.9 °C 32.6 °F /  0.3 °C 30.47in /  1031.7hPa Calm     83% 0.01in /  0.25mm 202 W/m2
10:24 37.5 °F /  3.1 °C 32.8 °F /  0.4 °C 30.47in /  1031.7hPa Calm     83% 0.01in /  0.25mm 199 W/m2
10:29 37.7 °F /  3.2 °C 33 °F /  0.6 °C 30.47in /  1031.7hPa Calm     83% 0.01in /  0.25mm 186 W/m2
10:34 37.9 °F /  3.3 °C 33.2 °F /  0.7 °C 30.46in /  1031.4hPa Calm     83% 0.01in /  0.25mm 188 W/m2
10:39 38.1 °F /  3.4 °C 33.4 °F /  0.8 °C 30.46in /  1031.4hPa Calm     83% 0.01in /  0.25mm 202 W/m2
10:44 38.2 °F /  3.4 °C 33.5 °F /  0.8 °C 30.46in /  1031.4hPa Calm     83% 0.01in /  0.25mm 206 W/m2
10:49 38.2 °F /  3.4 °C 33.5 °F /  0.8 °C 30.46in /  1031.4hPa ENE 0.3mph /  0.5km/h 3mph /  4.8km/h 83% 0.01in /  0.25mm 169 W/m2
10:54 38.3 °F /  3.5 °C 33.8 °F /  1 °C 30.46in /  1031.4hPa Calm   3mph /  4.8km/h 83.6% 0.01in /  0.25mm 185 W/m2
10:59 38.4 °F /  3.6 °C 34 °F /  1.1 °C 30.45in /  1031hPa ENE 0.1mph /  0.2km/h 3mph /  4.8km/h 84% 0.01in /  0.25mm 221 W/m2
11:04 38.7 °F /  3.7 °C 34.4 °F /  1.3 °C 30.45in /  1031hPa ENE 0.7mph /  1.1km/h 4mph /  6.4km/h 84.6% 0.01in /  0.25mm 223 W/m2
11:09 38.9 °F /  3.8 °C 34.6 °F /  1.4 °C 30.45in /  1031hPa Calm   4mph /  6.4km/h 84.4% 0.01in /  0.25mm 211 W/m2
11:14 39.1 °F /  3.9 °C 34.7 °F /  1.5 °C 30.45in /  1031hPa ENE 0.1mph /  0.2km/h 4mph /  6.4km/h 84% 0.02in /  0.51mm 227 W/m2
11:19 39.2 °F /  4 °C 34.8 °F /  1.6 °C 30.45in /  1031hPa ENE 0.2mph /  0.3km/h 4mph /  6.4km/h 84% 0.02in /  0.51mm 257 W/m2
11:24 39.4 °F /  4.1 °C 35 °F /  1.7 °C 30.44in /  1030.7hPa Calm   4mph /  6.4km/h 84% 0.02in /  0.51mm 251 W/m2
11:29 39.6 °F /  4.2 °C 35.2 °F /  1.8 °C 30.44in /  1030.7hPa Calm   4mph /  6.4km/h 84% 0.02in /  0.51mm 244 W/m2
11:34 39.8 °F /  4.3 °C 35.4 °F /  1.9 °C 30.44in /  1030.7hPa Calm   4mph /  6.4km/h 84% 0.02in /  0.51mm 262 W/m2
11:39 40 °F /  4.4 °C 35.6 °F /  2 °C 30.44in /  1030.7hPa Calm     84% 0.02in /  0.51mm 276 W/m2
11:44 40.3 °F /  4.6 °C 35.9 °F /  2.2 °C 30.43in /  1030.4hPa ENE 0.1mph /  0.2km/h 2mph /  3.2km/h 84% 0.02in /  0.51mm 274 W/m2
11:49 40.7 °F /  4.8 °C 36.3 °F /  2.4 °C 30.43in /  1030.4hPa ENE 0.1mph /  0.2km/h 2mph /  3.2km/h 84% 0.02in /  0.51mm 290 W/m2
11:54 41.1 °F /  5.1 °C 36.4 °F /  2.4 °C 30.43in /  1030.4hPa ENE 0.8mph /  1.3km/h 3mph /  4.8km/h 83.2% 0.03in /  0.76mm 306 W/m2
11:59 41.5 °F /  5.3 °C 36.7 °F /  2.6 °C 30.43in /  1030.4hPa Calm   3mph /  4.8km/h 83% 0.03in /  0.76mm 306 W/m2
12:00 41.7 °F /  5.4 °C 36.9 °F /  2.7 °C 30.43in /  1030.4hPa Calm   3mph /  4.8km/h 83% 0.03in /  0.76mm 295 W/m2
12:09 42.2 °F /  5.7 °C 37 °F /  2.8 °C 30.42in /  1030hPa ENE 0.4mph /  0.6km/h 3mph /  4.8km/h 81.9% 0.04in /  1.02mm 288 W/m2
12:14 42.4 °F /  5.8 °C 37 °F /  2.8 °C 30.42in /  1030hPa Calm   3mph /  4.8km/h 81% 0.04in /  1.02mm 276 W/m2
12:19 42.7 °F /  5.9 °C 37.3 °F /  2.9 °C 30.42in /  1030hPa ENE 0.5mph /  0.8km/h 5mph /  8km/h 81% 0.04in /  1.02mm 267 W/m2
12:24 43 °F /  6.1 °C 37.4 °F /  3 °C 30.42in /  1030hPa Calm   5mph /  8km/h 80.5% 0.05in /  1.27mm 279 W/m2
12:29 43.3 °F /  6.3 °C 37.5 °F /  3.1 °C 30.42in /  1030hPa ENE 0.3mph /  0.5km/h 5mph /  8km/h 79.9% 0.05in /  1.27mm 276 W/m2
12:34 43.5 °F /  6.4 °C 37.4 °F /  3 °C 30.41in /  1029.7hPa Calm   5mph /  8km/h 79% 0.05in /  1.27mm 274 W/m2
12:39 43.6 °F /  6.4 °C 37.3 °F /  2.9 °C 30.41in /  1029.7hPa Calm     78% 0.04in /  1.02mm 271 W/m2
12:44 43.7 °F /  6.5 °C 37.3 °F /  2.9 °C 30.41in /  1029.7hPa Calm     78% 0.05in /  1.27mm 262 W/m2
12:49 43.7 °F /  6.5 °C 37.3 °F /  2.9 °C 30.41in /  1029.7hPa Calm     78% 0.05in /  1.27mm 237 W/m2
12:54 43.8 °F /  6.6 °C 37.4 °F /  3 °C 30.41in /  1029.7hPa Calm     78% 0.05in /  1.27mm 244 W/m2
12:59 43.8 °F /  6.6 °C 37.4 °F /  3 °C 30.41in /  1029.7hPa Calm   1mph /  1.6km/h 78% 0.05in /  1.27mm 262 W/m2
13:04 44 °F /  6.7 °C 37.6 °F /  3.1 °C 30.40in /  1029.3hPa Calm   1mph /  1.6km/h 78% 0.05in /  1.27mm 251 W/m2
13:09 44.2 °F /  6.8 °C 37.8 °F /  3.2 °C 30.41in /  1029.7hPa Calm     78% 0.04in /  1.02mm 250 W/m2
13:14 44.3 °F /  6.8 °C 37.7 °F /  3.2 °C 30.41in /  1029.7hPa Calm     77.5% 0.04in /  1.02mm 234 W/m2
13:19 44.4 °F /  6.9 °C 38 °F /  3.3 °C 30.41in /  1029.7hPa Calm     78% 0.04in /  1.02mm 234 W/m2
13:24 44.6 °F /  7 °C 38.1 °F /  3.4 °C 30.41in /  1029.7hPa Calm     78% 0.04in /  1.02mm 221 W/m2
13:29 44.7 °F /  7.1 °C 38.1 °F /  3.4 °C 30.41in /  1029.7hPa Calm     77.3% 0.04in /  1.02mm 218 W/m2
13:34 44.8 °F /  7.1 °C 37.9 °F /  3.3 °C 30.39in /  1029hPa Calm     76.6% 0.04in /  1.02mm 218 W/m2
13:39 44.8 °F /  7.1 °C 37.7 °F /  3.2 °C 30.38in /  1028.7hPa Calm   1mph /  1.6km/h 76% 0.02in /  0.51mm 206 W/m2
13:44 44.7 °F /  7.1 °C 38 °F /  3.3 °C 30.38in /  1028.7hPa Calm   1mph /  1.6km/h 77% 0.03in /  0.76mm 209 W/m2
13:49 44.8 °F /  7.1 °C 38.1 °F /  3.4 °C 30.37in /  1028.3hPa Calm   1mph /  1.6km/h 77% 0.03in /  0.76mm 200 W/m2
13:54 44.9 °F /  7.2 °C 38.2 °F /  3.4 °C 30.37in /  1028.3hPa Calm   1mph /  1.6km/h 77% 0.03in /  0.76mm 171 W/m2
13:59 45 °F /  7.2 °C 38.3 °F /  3.5 °C 30.37in /  1028.3hPa Calm   1mph /  1.6km/h 77% 0.03in /  0.76mm 197 W/m2
14:04 45.1 °F /  7.3 °C 38.3 °F /  3.5 °C 30.37in /  1028.3hPa ENE 0.4mph /  0.6km/h 3mph /  4.8km/h 77% 0.03in /  0.76mm 195 W/m2
14:09 45.2 °F /  7.3 °C 38.3 °F /  3.5 °C 30.37in /  1028.3hPa ENE 0.2mph /  0.3km/h 3mph /  4.8km/h 76.7% 0.02in /  0.51mm 179 W/m2
14:14 45.4 °F /  7.4 °C 38.3 °F /  3.5 °C 30.37in /  1028.3hPa Calm   3mph /  4.8km/h 76.2% 0.02in /  0.51mm 183 W/m2
14:19 45.5 °F /  7.5 °C 38.3 °F /  3.5 °C 30.37in /  1028.3hPa Calm   3mph /  4.8km/h 76% 0.02in /  0.51mm 185 W/m2
14:24 45.5 °F /  7.5 °C 38.6 °F /  3.7 °C 30.37in /  1028.3hPa Calm   3mph /  4.8km/h 76.5% 0.02in /  0.51mm 167 W/m2
14:29 45.6 °F /  7.6 °C 38.6 °F /  3.7 °C 30.37in /  1028.3hPa Calm   3mph /  4.8km/h 76.4% 0.02in /  0.51mm 158 W/m2
14:34 45.7 °F /  7.6 °C 38.6 °F /  3.7 °C 30.37in /  1028.3hPa Calm   3mph /  4.8km/h 76% 0.02in /  0.51mm 149 W/m2
14:39 45.6 °F /  7.6 °C 38.3 °F /  3.5 °C 30.37in /  1028.3hPa Calm     75.3% 0.01in /  0.25mm 151 W/m2
14:44 45.6 °F /  7.6 °C 38.5 °F /  3.6 °C 30.37in /  1028.3hPa Calm   1mph /  1.6km/h 76% 0.01in /  0.25mm 151 W/m2
14:49 45.6 °F /  7.6 °C 38.5 °F /  3.6 °C 30.37in /  1028.3hPa ENE 0.3mph /  0.5km/h 4mph /  6.4km/h 76% 0.01in /  0.25mm 149 W/m2
14:54 45.6 °F /  7.6 °C 38.5 °F /  3.6 °C 30.36in /  1028hPa ENE 0.2mph /  0.3km/h 4mph /  6.4km/h 76% 0.01in /  0.25mm 144 W/m2
14:59 45.6 °F /  7.6 °C 38.5 °F /  3.6 °C 30.36in /  1028hPa Calm   4mph /  6.4km/h 76% 0.01in /  0.25mm 127 W/m2
15:04 45.6 °F /  7.6 °C 38.5 °F /  3.6 °C 30.37in /  1028.3hPa Calm   4mph /  6.4km/h 76% 0.01in /  0.25mm 125 W/m2
15:09 45.6 °F /  7.6 °C 38.5 °F /  3.6 °C 30.37in /  1028.3hPa Calm     76% 0.00in /  0mm 116 W/m2
15:14 45.6 °F /  7.6 °C 38.5 °F /  3.6 °C 30.37in /  1028.3hPa Calm     76% 0.00in /  0mm 104 W/m2
15:19 45.5 °F /  7.5 °C 38.5 °F /  3.6 °C 30.37in /  1028.3hPa Calm     76.3% 0.00in /  0mm 95 W/m2
15:24 45.5 °F /  7.5 °C 38.7 °F /  3.7 °C 30.37in /  1028.3hPa Calm     77% 0.00in /  0mm 97 W/m2
15:29 45.5 °F /  7.5 °C 38.6 °F /  3.7 °C 30.37in /  1028.3hPa Calm     76.7% 0.00in /  0mm 93 W/m2
15:34 45.5 °F /  7.5 °C 38.7 °F /  3.7 °C 30.37in /  1028.3hPa Calm     76.9% 0.00in /  0mm 90 W/m2
15:39 45.5 °F /  7.5 °C 38.7 °F /  3.7 °C 30.36in /  1028hPa Calm     77% 0.00in /  0mm 81 W/m2
15:44 45.5 °F /  7.5 °C 38.7 °F /  3.7 °C 30.36in /  1028hPa Calm     77% 0.00in /  0mm 86 W/m2
15:49 45.5 °F /  7.5 °C 38.7 °F /  3.7 °C 30.35in /  1027.7hPa ENE 0.1mph /  0.2km/h 3mph /  4.8km/h 77% 0.00in /  0mm 77 W/m2
15:54 45.5 °F /  7.5 °C 38.7 °F /  3.7 °C 30.35in /  1027.7hPa ENE 0.3mph /  0.5km/h 3mph /  4.8km/h 77% 0.00in /  0mm 76 W/m2
15:59 45.4 °F /  7.4 °C 38.4 °F /  3.6 °C 30.35in /  1027.7hPa ENE 0.8mph /  1.3km/h 4mph /  6.4km/h 76.3% 0.00in /  0mm 65 W/m2
16:00 45.4 °F /  7.4 °C 38.3 °F /  3.5 °C 30.34in /  1027.3hPa Calm   4mph /  6.4km/h 76% 0.00in /  0mm 44 W/m2
16:09 45.3 °F /  7.4 °C 38.5 °F /  3.6 °C 30.34in /  1027.3hPa Calm     77% 0.00in /  0mm 47 W/m2
16:14 45.3 °F /  7.4 °C 38.5 °F /  3.6 °C 30.35in /  1027.7hPa Calm     77% 0.00in /  0mm 40 W/m2
16:19 45.2 °F /  7.3 °C 38.4 °F /  3.6 °C 30.35in /  1027.7hPa Calm     77% 0.00in /  0mm 39 W/m2
16:24 45.2 °F /  7.3 °C 38.4 °F /  3.6 °C 30.35in /  1027.7hPa Calm     77% 0.00in /  0mm 33 W/m2
16:29 45.1 °F /  7.3 °C 38.5 °F /  3.6 °C 30.35in /  1027.7hPa Calm     77.5% 0.00in /  0mm 26 W/m2
16:34 45 °F /  7.2 °C 38.6 °F /  3.7 °C 30.35in /  1027.7hPa Calm     78% 0.00in /  0mm 21 W/m2
16:39 44.9 °F /  7.2 °C 38.5 °F /  3.6 °C 30.35in /  1027.7hPa Calm     78% 0.00in /  0mm 12 W/m2
16:44 44.8 °F /  7.1 °C 38.5 °F /  3.6 °C 30.34in /  1027.3hPa Calm     78.6% 0.00in /  0mm 9 W/m2
16:49 44.6 °F /  7 °C 38.5 °F /  3.6 °C 30.34in /  1027.3hPa Calm     78.8% 0.00in /  0mm 7 W/m2
16:54 44.5 °F /  6.9 °C 38.4 °F /  3.6 °C 30.34in /  1027.3hPa Calm     79% 0.00in /  0mm 5 W/m2
16:59 44.4 °F /  6.9 °C 38.3 °F /  3.5 °C 30.34in /  1027.3hPa Calm     79% 0.00in /  0mm 0 W/m2
17:04 44.3 °F /  6.8 °C 38.3 °F /  3.5 °C 30.34in /  1027.3hPa Calm     79.5% 0.00in /  0mm 0 W/m2
17:09 44.1 °F /  6.7 °C 38.2 °F /  3.4 °C 30.34in /  1027.3hPa Calm     79.4% 0.00in /  0mm 0 W/m2
17:14 43.9 °F /  6.6 °C 38.1 °F /  3.4 °C 30.34in /  1027.3hPa Calm     79.9% 0.00in /  0mm 0 W/m2
17:19 43.7 °F /  6.5 °C 38 °F /  3.3 °C 30.34in /  1027.3hPa Calm     80% 0.00in /  0mm 0 W/m2
17:24 43.6 °F /  6.4 °C 37.8 °F /  3.2 °C 30.34in /  1027.3hPa Calm     80% 0.00in /  0mm 0 W/m2
17:29 43.4 °F /  6.3 °C 37.7 °F /  3.2 °C 30.34in /  1027.3hPa Calm     80.4% 0.00in /  0mm 0 W/m2
17:34 43.3 °F /  6.3 °C 38 °F /  3.3 °C 30.34in /  1027.3hPa Calm     81.3% 0.00in /  0mm 0 W/m2
17:39 43.3 °F /  6.3 °C 38.2 °F /  3.4 °C 30.34in /  1027.3hPa Calm     82% 0.00in /  0mm 0 W/m2
17:44 43.2 °F /  6.2 °C 38 °F /  3.3 °C 30.34in /  1027.3hPa Calm     81.9% 0.00in /  0mm 0 W/m2
17:49 43 °F /  6.1 °C 37.8 °F /  3.2 °C 30.34in /  1027.3hPa Calm     81.6% 0.00in /  0mm 0 W/m2
17:54 42.9 °F /  6.1 °C 37.8 °F /  3.2 °C 30.34in /  1027.3hPa Calm     82% 0.00in /  0mm 0 W/m2
17:59 42.8 °F /  6 °C 37.9 °F /  3.3 °C 30.34in /  1027.3hPa Calm     82.7% 0.00in /  0mm 0 W/m2
18:04 42.7 °F /  5.9 °C 37.9 °F /  3.3 °C 30.34in /  1027.3hPa Calm     83% 0.00in /  0mm 0 W/m2
18:09 42.7 °F /  5.9 °C 37.9 °F /  3.3 °C 30.34in /  1027.3hPa Calm     83% 0.00in /  0mm 0 W/m2
18:14 42.6 °F /  5.9 °C 38.1 °F /  3.4 °C 30.34in /  1027.3hPa Calm     83.7% 0.00in /  0mm 0 W/m2
18:19 42.7 °F /  5.9 °C 38.2 °F /  3.4 °C 30.34in /  1027.3hPa Calm     84% 0.00in /  0mm 0 W/m2
18:24 42.8 °F /  6 °C 38.3 °F /  3.5 °C 30.34in /  1027.3hPa Calm     84% 0.00in /  0mm 0 W/m2
18:29 42.8 °F /  6 °C 38.3 °F /  3.5 °C 30.34in /  1027.3hPa Calm     84% 0.00in /  0mm 0 W/m2
18:34 42.9 °F /  6.1 °C 38.5 °F /  3.6 °C 30.34in /  1027.3hPa Calm     84.3% 0.00in /  0mm 0 W/m2
18:39 42.8 °F /  6 °C 38.3 °F /  3.5 °C 30.34in /  1027.3hPa Calm     84% 0.00in /  0mm 0 W/m2
18:44 42.7 °F /  5.9 °C 38.2 °F /  3.4 °C 30.34in /  1027.3hPa Calm     84% 0.00in /  0mm 0 W/m2
18:49 42.6 °F /  5.9 °C 38.1 °F /  3.4 °C 30.34in /  1027.3hPa Calm     84% 0.00in /  0mm 0 W/m2
18:54 42.4 °F /  5.8 °C 37.9 °F /  3.3 °C 30.34in /  1027.3hPa Calm     84% 0.00in /  0mm 0 W/m2
18:59 42.3 °F /  5.7 °C 37.8 °F /  3.2 °C 30.34in /  1027.3hPa Calm     84% 0.00in /  0mm 0 W/m2
19:04 42.2 °F /  5.7 °C 37.8 °F /  3.2 °C 30.34in /  1027.3hPa Calm     84.4% 0.00in /  0mm 0 W/m2
19:09 42 °F /  5.6 °C 37.9 °F /  3.3 °C 30.34in /  1027.3hPa Calm     85% 0.00in /  0mm 0 W/m2
19:14 42 °F /  5.6 °C 37.8 °F /  3.2 °C 30.34in /  1027.3hPa Calm     85% 0.00in /  0mm 0 W/m2
19:19 41.9 °F /  5.5 °C 37.7 °F /  3.2 °C 30.33in /  1027hPa Calm     85% 0.00in /  0mm 0 W/m2
19:24 41.8 °F /  5.4 °C 37.7 °F /  3.2 °C 30.34in /  1027.3hPa Calm     85% 0.00in /  0mm 0 W/m2
19:29 41.8 °F /  5.4 °C 37.9 °F /  3.3 °C 30.34in /  1027.3hPa Calm     86% 0.00in /  0mm 0 W/m2
19:34 41.7 °F /  5.4 °C 37.9 °F /  3.3 °C 30.34in /  1027.3hPa Calm     86% 0.00in /  0mm 0 W/m2
19:39 41.7 °F /  5.4 °C 37.8 °F /  3.2 °C 30.34in /  1027.3hPa Calm     86% 0.00in /  0mm 0 W/m2
19:44 41.7 °F /  5.4 °C 37.8 °F /  3.2 °C 30.34in /  1027.3hPa Calm     86% 0.00in /  0mm 0 W/m2
19:49 41.6 °F /  5.3 °C 37.7 °F /  3.2 °C 30.33in /  1027hPa Calm     86% 0.00in /  0mm 0 W/m2
19:54 41.5 °F /  5.3 °C 37.6 °F /  3.1 °C 30.33in /  1027hPa Calm     86% 0.00in /  0mm 0 W/m2
19:59 41.4 °F /  5.2 °C 37.6 °F /  3.1 °C 30.33in /  1027hPa Calm     86.1% 0.00in /  0mm 0 W/m2
20:00 41.4 °F /  5.2 °C 37.8 °F /  3.2 °C 30.33in /  1027hPa Calm     87% 0.00in /  0mm 0 W/m2
20:09 41.3 °F /  5.2 °C 37.7 °F /  3.2 °C 30.33in /  1027hPa Calm     87% 0.00in /  0mm 0 W/m2
20:14 41.2 °F /  5.1 °C 37.6 °F /  3.1 °C 30.33in /  1027hPa Calm     87% 0.00in /  0mm 0 W/m2
20:19 41.1 °F /  5.1 °C 37.5 °F /  3.1 °C 30.33in /  1027hPa Calm     87% 0.00in /  0mm 0 W/m2
20:24 41.1 °F /  5.1 °C 37.6 °F /  3.1 °C 30.32in /  1026.6hPa Calm     87.3% 0.00in /  0mm 0 W/m2
20:29 41 °F /  5 °C 38 °F /  3.3 °C 30.32in /  1026.6hPa Calm     89.2% 0.00in /  0mm 0 W/m2
20:34 40.9 °F /  4.9 °C 37.6 °F /  3.1 °C 30.32in /  1026.6hPa Calm     88% 0.00in /  0mm 0 W/m2
20:39 40.8 °F /  4.9 °C 37.6 °F /  3.1 °C 30.32in /  1026.6hPa Calm     88% 0.00in /  0mm 0 W/m2
20:44 40.8 °F /  4.9 °C 37.5 °F /  3.1 °C 30.32in /  1026.6hPa Calm     88% 0.00in /  0mm 0 W/m2
20:49 40.8 °F /  4.9 °C 37.5 °F /  3.1 °C 30.32in /  1026.6hPa Calm     88% 0.00in /  0mm 0 W/m2
20:54 40.8 °F /  4.9 °C 37.5 °F /  3.1 °C 30.32in /  1026.6hPa Calm     88% 0.00in /  0mm 0 W/m2
20:59 40.7 °F /  4.8 °C 37.4 °F /  3 °C 30.32in /  1026.6hPa Calm     88% 0.00in /  0mm 0 W/m2
21:04 40.6 °F /  4.8 °C 37.3 °F /  2.9 °C 30.31in /  1026.3hPa Calm     88% 0.00in /  0mm 0 W/m2
21:09 40.5 °F /  4.7 °C 37.4 °F /  3 °C 30.31in /  1026.3hPa Calm     88.6% 0.00in /  0mm 0 W/m2
21:14 40.4 °F /  4.7 °C 37.4 °F /  3 °C 30.31in /  1026.3hPa Calm     89% 0.00in /  0mm 0 W/m2
21:19 40.3 °F /  4.6 °C 37.3 °F /  2.9 °C 30.30in /  1026hPa Calm     89% 0.00in /  0mm 0 W/m2
21:24 40.2 °F /  4.6 °C 37.2 °F /  2.9 °C 30.30in /  1026hPa Calm     89% 0.00in /  0mm 0 W/m2
21:29 40.2 °F /  4.6 °C 37.2 °F /  2.9 °C 30.30in /  1026hPa Calm     89% 0.00in /  0mm 0 W/m2
21:34 40.1 °F /  4.5 °C 37.2 °F /  2.9 °C 30.30in /  1026hPa ENE 0.2mph /  0.3km/h 3mph /  4.8km/h 89.2% 0.00in /  0mm 0 W/m2
21:39 40.1 °F /  4.5 °C 37.4 °F /  3 °C 30.30in /  1026hPa ENE 0.4mph /  0.6km/h 3mph /  4.8km/h 90% 0.00in /  0mm 0 W/m2
21:44 40.2 °F /  4.6 °C 37.5 °F /  3.1 °C 30.30in /  1026hPa ENE 0.8mph /  1.3km/h 5mph /  8km/h 90% 0.00in /  0mm 0 W/m2
21:49 40.1 °F /  4.5 °C 37.5 °F /  3.1 °C 30.29in /  1025.6hPa ENE 0.1mph /  0.2km/h 5mph /  8km/h 90% 0.00in /  0mm 0 W/m2
21:54 40 °F /  4.4 °C 37.3 °F /  2.9 °C 30.29in /  1025.6hPa Calm   5mph /  8km/h 90% 0.00in /  0mm 0 W/m2
21:59 39.9 °F /  4.4 °C 37.2 °F /  2.9 °C 30.29in /  1025.6hPa East 1.8mph /  2.9km/h 6mph /  9.7km/h 90% 0.00in /  0mm 0 W/m2
22:04 39.9 °F /  4.4 °C 37.2 °F /  2.9 °C 30.29in /  1025.6hPa SE 0.8mph /  1.3km/h 6mph /  9.7km/h 90% 0.00in /  0mm 0 W/m2
22:09 39.8 °F /  4.3 °C 37.3 °F /  2.9 °C 30.28in /  1025.3hPa SE 1.5mph /  2.4km/h 4mph /  6.4km/h 90.8% 0.00in /  0mm 0 W/m2
22:14 39.7 °F /  4.3 °C 37.3 °F /  2.9 °C 30.28in /  1025.3hPa SSE 0.8mph /  1.3km/h 4mph /  6.4km/h 91% 0.00in /  0mm 0 W/m2
22:19 39.5 °F /  4.2 °C 37.1 °F /  2.8 °C 30.29in /  1025.6hPa SSE 0.1mph /  0.2km/h 4mph /  6.4km/h 91% 0.00in /  0mm 0 W/m2
22:24 39.4 °F /  4.1 °C 37 °F /  2.8 °C 30.28in /  1025.3hPa SSE 0.3mph /  0.5km/h 4mph /  6.4km/h 91.1% 0.00in /  0mm 0 W/m2
22:29 39.3 °F /  4.1 °C 37.2 °F /  2.9 °C 30.28in /  1025.3hPa SSE 0.5mph /  0.8km/h 4mph /  6.4km/h 92% 0.00in /  0mm 0 W/m2
22:34 39.3 °F /  4.1 °C 37.2 °F /  2.9 °C 30.27in /  1024.9hPa SSE 0.8mph /  1.3km/h 5mph /  8km/h 92% 0.00in /  0mm 0 W/m2
22:39 39.3 °F /  4.1 °C 37.2 °F /  2.9 °C 30.26in /  1024.6hPa SSE 0.2mph /  0.3km/h 5mph /  8km/h 92% 0.00in /  0mm 0 W/m2
22:44 39.3 °F /  4.1 °C 37.3 °F /  2.9 °C 30.26in /  1024.6hPa SSE 0.9mph /  1.4km/h 5mph /  8km/h 92.5% 0.00in /  0mm 0 W/m2
22:49 39.2 °F /  4 °C 37.3 °F /  2.9 °C 30.26in /  1024.6hPa SSE 0.2mph /  0.3km/h 5mph /  8km/h 93% 0.00in /  0mm 0 W/m2
22:54 39.1 °F /  3.9 °C 37.3 °F /  2.9 °C 30.26in /  1024.6hPa Calm   5mph /  8km/h 93% 0.00in /  0mm 0 W/m2
22:59 39 °F /  3.9 °C 37.1 °F /  2.8 °C 30.26in /  1024.6hPa Calm   5mph /  8km/h 93% 0.00in /  0mm 0 W/m2
23:00 38.9 °F /  3.8 °C 37.1 °F /  2.8 °C 30.26in /  1024.6hPa Calm   5mph /  8km/h 93% 0.00in /  0mm 0 W/m2
23:09 38.9 °F /  3.8 °C 37.1 °F /  2.8 °C 30.26in /  1024.6hPa Calm     93% 0.00in /  0mm 0 W/m2
23:14 38.9 °F /  3.8 °C 37.1 °F /  2.8 °C 30.27in /  1024.9hPa SSE 1mph /  1.6km/h 3mph /  4.8km/h 93% 0.00in /  0mm 0 W/m2
23:19 38.9 °F /  3.8 °C 37.1 °F /  2.8 °C 30.27in /  1024.9hPa Calm   3mph /  4.8km/h 93% 0.00in /  0mm 0 W/m2
23:24 38.9 °F /  3.8 °C 37.2 °F /  2.9 °C 30.27in /  1024.9hPa SSE 0.3mph /  0.5km/h 3mph /  4.8km/h 93.7% 0.00in /  0mm 0 W/m2
23:29 38.9 °F /  3.8 °C 37.1 °F /  2.8 °C 30.26in /  1024.6hPa Calm   3mph /  4.8km/h 93.5% 0.00in /  0mm 0 W/m2
23:34 38.8 °F /  3.8 °C 37 °F /  2.8 °C 30.26in /  1024.6hPa SSE 0.1mph /  0.2km/h 3mph /  4.8km/h 93% 0.00in /  0mm 0 W/m2
23:39 38.8 °F /  3.8 °C 37.1 °F /  2.8 °C 30.27in /  1024.9hPa SSE 1.1mph /  1.8km/h 3mph /  4.8km/h 93.6% 0.00in /  0mm 0 W/m2
23:44 38.8 °F /  3.8 °C 37.2 °F /  2.9 °C 30.27in /  1024.9hPa Calm   3mph /  4.8km/h 94% 0.00in /  0mm 0 W/m2
23:49 38.7 °F /  3.7 °C 37.1 °F /  2.8 °C 30.28in /  1025.3hPa SSE 0.6mph /  1km/h 3mph /  4.8km/h 94% 0.00in /  0mm 0 W/m2
23:54 38.7 °F /  3.7 °C 37.1 °F /  2.8 °C 30.28in /  1025.3hPa Calm   3mph /  4.8km/h 94% 0.00in /  0mm 0 W/m2
23:59 38.7 °F /  3.7 °C 37.1 °F /  2.8 °C 30.27in /  1024.9hPa Calm   3mph /  4.8km/h 94% 0.00in /  0mm 0 W/m2
Hartford County Weather
Compliments of Weather Underground - 2 mb